Portada
METAR-TAF:

METAR-TAF

Aeroports :

Changsha, Xina

latitud: 28-11N, longitud: 113-13E, altitud: 66 m

Observació

L'informe es va fer fa 27 minuts, a les 03:00 UTC
Vent 2 kt amb direcció variable
Temperatura 26°C
Humitat 70%
Pressió 1014 hPa
Visibilitat 10 km o més
sense núvols per sota de 1500 mi sense presència de cumulonimbus.

METAR: ZGHA 070300Z VRB01MPS CAVOK 26/20 Q1014 NOSIG

Hora: 11:27 (03:27 UTC)

Pronòstic

L'informe es va fer fa 6 hores i 26 minuts, a les 21:01 UTC
Pronòstic vàlid del 07 a les 00 UTC al 07 a les 24 UTC
Vent 8 kt del Nord
Visibilitat: 4000 m
Núvols disperses a una alçada de 4000 ft
boirina

TAF: ZGHA 062101Z 0700/0724 01004MPS 4000 BR SCT040 TX24/0707Z TN18/0722Z

Observacions i pronòstics meteorològics de més de 4000 aeroports (METAR i TAF).

Les estacions disponibles són els punts grocs i vermells al mapa.

Posi el ratolí al punt desitjat per veure el nom de l'estació.

Feu clic per veure les observacions i els pronòstics meteorològics.

Per canviar el mapa: feu clic els botons verds amb una creu de color negre per apropar; al botó verd amb un guió per allunyar la imatge; o en les fletxes verdes per a mapes adjacents.


METAR-TAF: